createdAt,value
2018-12-06T00:01:53.135Z,101484.00
2018-12-06T00:04:22.236Z,101485.00
2018-12-06T00:06:51.262Z,101472.00
2018-12-06T00:09:20.338Z,101479.00
2018-12-06T00:11:49.592Z,101468.00
2018-12-06T00:14:18.585Z,101471.00
2018-12-06T00:16:56.018Z,101469.00
2018-12-06T00:19:25.063Z,101469.00
2018-12-06T00:21:54.074Z,101466.00
2018-12-06T00:24:23.191Z,101467.00
2018-12-06T00:26:52.607Z,101473.00
2018-12-06T00:29:21.818Z,101470.00
2018-12-06T00:31:50.921Z,101448.00
2018-12-06T00:34:20.123Z,101449.00
2018-12-06T00:36:49.194Z,101456.00
2018-12-06T00:39:18.293Z,101459.00
2018-12-06T00:41:47.295Z,101448.00
2018-12-06T00:44:16.246Z,101466.00
2018-12-06T00:46:45.334Z,101460.00
2018-12-06T00:49:14.427Z,101458.00
2018-12-06T00:51:43.668Z,101467.00
2018-12-06T00:54:12.949Z,101452.00
2018-12-06T00:56:42.095Z,101460.00
2018-12-06T00:59:11.113Z,101446.00
2018-12-06T01:01:40.261Z,101450.00
2018-12-06T01:04:09.443Z,101451.00
2018-12-06T01:06:39.137Z,101446.00
2018-12-06T01:09:08.141Z,101442.00
2018-12-06T01:11:37.316Z,101458.00
2018-12-06T01:14:06.397Z,101451.00
2018-12-06T01:16:35.498Z,101460.00
2018-12-06T01:19:04.589Z,101446.00
2018-12-06T01:21:33.881Z,101447.00
2018-12-06T01:24:02.988Z,101438.00
2018-12-06T01:26:32.189Z,101449.00
2018-12-06T01:29:01.338Z,101428.00
2018-12-06T01:31:30.416Z,101422.00
2018-12-06T01:33:59.421Z,101428.00
2018-12-06T01:36:28.489Z,101422.00
2018-12-06T01:38:57.558Z,101424.00
2018-12-06T01:41:26.652Z,101405.00
2018-12-06T01:43:55.745Z,101417.00
2018-12-06T01:46:24.945Z,101402.00
2018-12-06T01:48:54.033Z,101409.00
2018-12-06T01:51:23.179Z,101399.00
2018-12-06T01:53:52.322Z,101396.00
2018-12-06T01:56:21.338Z,101395.00
2018-12-06T01:58:50.397Z,101389.00
2018-12-06T02:01:19.503Z,101391.00
2018-12-06T02:03:48.544Z,101394.00
2018-12-06T02:06:17.492Z,101388.00
2018-12-06T02:08:46.613Z,101393.00
2018-12-06T02:11:15.809Z,101392.00
2018-12-06T02:13:44.870Z,101387.00
2018-12-06T02:16:13.922Z,101377.00
2018-12-06T02:18:43.281Z,101385.00
2018-12-06T02:21:12.330Z,101376.00
2018-12-06T02:23:41.328Z,101390.00
2018-12-06T02:26:10.390Z,101388.00
2018-12-06T02:28:39.616Z,101380.00
2018-12-06T02:31:08.648Z,101375.00
2018-12-06T02:33:37.872Z,101385.00
2018-12-06T02:36:06.897Z,101373.00
2018-12-06T02:38:35.933Z,101369.00
2018-12-06T02:41:05.012Z,101357.00
2018-12-06T02:43:34.166Z,101352.00
2018-12-06T02:46:03.205Z,101342.00
2018-12-06T02:48:32.268Z,101341.00
2018-12-06T02:51:01.349Z,101334.00
2018-12-06T02:53:30.413Z,101317.00
2018-12-06T02:55:59.427Z,101316.00
2018-12-06T02:58:28.398Z,101311.00
2018-12-06T03:00:57.477Z,101317.00
2018-12-06T03:03:27.215Z,101292.00
2018-12-06T03:05:56.416Z,101287.00
2018-12-06T03:08:25.470Z,101279.00
2018-12-06T03:10:54.542Z,101277.00
2018-12-06T03:13:23.556Z,101270.00
2018-12-06T03:15:52.647Z,101257.00
2018-12-06T03:18:21.889Z,101257.00
2018-12-06T03:20:50.974Z,101247.00
2018-12-06T03:23:20.022Z,101251.00
2018-12-06T03:25:49.166Z,101247.00
2018-12-06T03:28:18.196Z,101242.00
2018-12-06T03:30:47.218Z,101242.00
2018-12-06T03:33:16.451Z,101240.00
2018-12-06T03:35:45.614Z,101237.00
2018-12-06T03:38:14.697Z,101233.00
2018-12-06T03:40:43.787Z,101221.00
2018-12-06T03:43:13.370Z,101225.00
2018-12-06T03:45:42.358Z,101220.00
2018-12-06T03:48:11.370Z,101219.00
2018-12-06T03:50:40.384Z,101214.00
2018-12-06T03:53:09.481Z,101203.00
2018-12-06T03:55:38.563Z,101196.00
2018-12-06T03:58:07.694Z,101181.00
2018-12-06T04:00:36.754Z,101177.00
2018-12-06T04:03:05.817Z,101173.00
2018-12-06T04:05:34.866Z,101174.00
2018-12-06T04:08:03.938Z,101164.00
2018-12-06T04:10:33.593Z,101169.00
2018-12-06T04:13:02.572Z,101147.00
2018-12-06T04:15:31.806Z,101143.00
2018-12-06T04:18:00.780Z,101150.00
2018-12-06T04:20:29.764Z,101147.00
2018-12-06T04:22:58.798Z,101150.00
2018-12-06T04:25:27.874Z,101140.00
2018-12-06T04:27:56.897Z,101139.00
2018-12-06T04:30:25.962Z,101129.00
2018-12-06T04:32:55.014Z,101132.00
2018-12-06T04:35:24.109Z,101123.00
2018-12-06T04:37:53.163Z,101111.00
2018-12-06T04:40:22.229Z,101109.00
2018-12-06T04:42:51.283Z,101115.00
2018-12-06T04:45:20.309Z,101107.00
2018-12-06T04:47:49.354Z,101091.00
2018-12-06T04:50:18.565Z,101089.00
2018-12-06T04:52:47.593Z,101099.00
2018-12-06T04:55:16.633Z,101088.00
2018-12-06T04:57:45.799Z,101091.00
2018-12-06T05:00:14.856Z,101084.00
2018-12-06T05:02:43.914Z,101088.00
2018-12-06T05:05:13.020Z,101090.00
2018-12-06T05:07:42.286Z,101090.00
2018-12-06T05:10:11.330Z,101083.00
2018-12-06T05:12:40.373Z,101087.00
2018-12-06T05:15:09.428Z,101076.00
2018-12-06T05:17:38.571Z,101072.00
2018-12-06T05:20:07.624Z,101085.00
2018-12-06T05:22:36.688Z,101082.00
2018-12-06T05:25:06.308Z,101075.00
2018-12-06T05:27:35.480Z,101087.00
2018-12-06T05:30:05.227Z,101072.00
2018-12-06T05:32:34.310Z,101077.00
2018-12-06T05:35:03.412Z,101087.00
2018-12-06T05:37:32.469Z,101089.00
2018-12-06T05:40:01.511Z,101103.00
2018-12-06T05:42:30.525Z,101099.00
2018-12-06T05:44:59.542Z,101100.00
2018-12-06T05:47:28.698Z,101107.00
2018-12-06T05:49:57.738Z,101112.00
2018-12-06T05:52:26.839Z,101106.00
2018-12-06T05:54:55.939Z,101088.00
2018-12-06T05:57:24.937Z,101096.00
2018-12-06T05:59:54.286Z,101089.00
2018-12-06T06:02:23.362Z,101093.00
2018-12-06T06:04:52.394Z,101096.00
2018-12-06T06:07:21.708Z,101092.00
2018-12-06T06:09:50.753Z,101088.00
2018-12-06T06:12:19.826Z,101096.00
2018-12-06T06:14:48.898Z,101089.00
2018-12-06T06:17:17.809Z,101086.00
2018-12-06T06:19:46.977Z,101099.00
2018-12-06T06:22:16.146Z,101093.00
2018-12-06T06:24:45.175Z,101093.00
2018-12-06T06:27:14.201Z,101096.00
2018-12-06T06:29:43.162Z,101093.00
2018-12-06T06:32:12.082Z,101102.00
2018-12-06T06:34:41.195Z,101086.00
2018-12-06T06:37:10.662Z,101086.00
2018-12-06T06:39:40.124Z,101076.00
2018-12-06T06:42:09.145Z,101084.00
2018-12-06T06:44:38.258Z,101083.00
2018-12-06T06:47:07.254Z,101087.00
2018-12-06T06:49:36.205Z,101094.00
2018-12-06T06:52:05.197Z,101089.00
2018-12-06T06:54:34.204Z,101086.00
2018-12-06T06:57:03.325Z,101088.00
2018-12-06T06:59:32.455Z,101087.00
2018-12-06T07:02:01.480Z,101092.00
2018-12-06T07:04:30.530Z,101078.00
2018-12-06T07:06:59.488Z,101079.00
2018-12-06T07:09:28.612Z,101072.00
2018-12-06T07:11:57.618Z,101087.00
2018-12-06T07:14:26.713Z,101086.00
2018-12-06T07:16:55.697Z,101076.00
2018-12-06T07:19:24.869Z,101075.00
2018-12-06T07:21:53.959Z,101056.00
2018-12-06T07:24:23.575Z,101070.00
2018-12-06T07:26:53.523Z,101068.00
2018-12-06T07:29:22.522Z,101074.00
2018-12-06T07:31:51.486Z,101066.00
2018-12-06T07:34:20.500Z,101062.00
2018-12-06T07:36:49.542Z,101051.00
2018-12-06T07:39:20.211Z,101050.00
2018-12-06T07:41:49.229Z,101051.00
2018-12-06T07:44:18.384Z,101050.00
2018-12-06T07:46:47.717Z,101041.00
2018-12-06T07:49:16.762Z,101037.00
2018-12-06T07:51:46.269Z,101025.00
2018-12-06T07:54:15.322Z,101013.00
2018-12-06T07:56:44.992Z,101008.00
2018-12-06T07:59:13.971Z,100997.00
2018-12-06T08:01:43.206Z,100990.00
2018-12-06T08:04:12.919Z,100979.00
2018-12-06T08:06:42.337Z,100971.00
2018-12-06T08:09:11.564Z,100969.00
2018-12-06T08:11:40.629Z,100957.00
2018-12-06T08:14:10.137Z,100974.00
2018-12-06T08:16:39.863Z,100984.00
2018-12-06T08:19:10.634Z,101008.00
2018-12-06T08:21:39.637Z,101018.00
2018-12-06T08:24:08.600Z,101019.00
2018-12-06T08:26:37.607Z,101008.00
2018-12-06T08:29:07.499Z,101002.00
2018-12-06T08:31:36.518Z,100998.00
2018-12-06T08:34:06.359Z,101007.00
2018-12-06T08:36:36.263Z,101008.00
2018-12-06T08:39:07.062Z,101021.00
2018-12-06T08:41:36.130Z,101026.00
2018-12-06T08:44:06.141Z,101027.00
2018-12-06T08:46:40.685Z,101039.00
2018-12-06T08:49:10.260Z,101040.00
2018-12-06T08:51:39.393Z,101022.00
2018-12-06T08:54:13.603Z,101034.00
2018-12-06T08:56:45.234Z,101044.00
2018-12-06T08:59:14.329Z,101062.00
2018-12-06T09:01:44.186Z,101061.00
2018-12-06T09:04:19.128Z,101063.00
2018-12-06T09:06:48.170Z,101071.00
2018-12-06T09:09:17.252Z,101076.00
2018-12-06T09:11:46.903Z,101071.00
2018-12-06T09:14:15.845Z,101079.00
2018-12-06T09:16:45.622Z,101087.00
2018-12-06T09:19:14.848Z,101076.00
2018-12-06T09:21:44.502Z,101083.00
2018-12-06T09:24:13.560Z,101081.00
2018-12-06T09:26:42.387Z,101077.00
2018-12-06T09:29:11.183Z,101083.00
2018-12-06T09:31:40.664Z,101079.00
2018-12-06T09:34:09.586Z,101079.00
2018-12-06T09:36:39.143Z,101075.00
2018-12-06T09:39:09.680Z,101076.00
2018-12-06T09:41:38.897Z,101077.00
2018-12-06T09:44:07.737Z,101072.00
2018-12-06T09:46:36.553Z,101078.00
2018-12-06T09:49:05.602Z,101073.00
2018-12-06T09:51:34.515Z,101075.00
2018-12-06T09:54:03.866Z,101067.00
2018-12-06T09:56:32.657Z,101068.00
2018-12-06T09:59:01.639Z,101056.00
2018-12-06T10:01:30.410Z,101049.00
2018-12-06T10:03:59.549Z,101059.00
2018-12-06T10:06:28.901Z,101055.00
2018-12-06T10:08:57.783Z,101051.00
2018-12-06T10:11:29.210Z,101046.00
2018-12-06T10:13:57.969Z,101061.00
2018-12-06T10:16:27.000Z,101052.00
2018-12-06T10:18:57.532Z,101061.00
2018-12-06T10:21:28.057Z,101054.00
2018-12-06T10:24:03.194Z,101045.00
2018-12-06T10:26:32.062Z,101043.00
2018-12-06T10:29:00.850Z,101032.00
2018-12-06T10:31:29.581Z,101036.00
2018-12-06T10:34:05.269Z,101034.00
2018-12-06T10:36:34.545Z,101040.00
2018-12-06T10:39:09.710Z,101028.00
2018-12-06T10:41:38.549Z,101026.00
2018-12-06T10:44:07.450Z,101018.00
2018-12-06T10:46:36.262Z,101012.00
2018-12-06T10:49:05.988Z,101021.00
2018-12-06T10:51:46.592Z,101009.00
2018-12-06T10:54:15.421Z,101013.00
2018-12-06T10:56:44.249Z,101013.00
2018-12-06T10:59:17.329Z,101005.00
2018-12-06T11:01:51.478Z,101003.00
2018-12-06T11:04:22.914Z,100990.00
2018-12-06T11:06:52.858Z,100996.00
2018-12-06T11:09:23.391Z,100980.00
2018-12-06T11:11:52.250Z,100979.00
2018-12-06T11:14:21.121Z,100966.00
2018-12-06T11:16:50.570Z,100965.00
2018-12-06T11:19:19.370Z,100971.00
2018-12-06T11:21:48.207Z,100963.00
2018-12-06T11:24:17.110Z,100956.00
2018-12-06T11:26:46.869Z,100953.00
2018-12-06T11:29:15.651Z,100966.00
2018-12-06T11:31:45.263Z,100944.00
2018-12-06T11:34:14.086Z,100948.00
2018-12-06T11:36:43.756Z,100950.00
2018-12-06T11:39:17.848Z,100946.00
2018-12-06T11:41:47.573Z,100954.00
2018-12-06T11:44:16.475Z,100962.00
2018-12-06T11:46:45.272Z,100968.00
2018-12-06T11:49:14.122Z,100966.00
2018-12-06T11:51:42.966Z,100962.00
2018-12-06T11:54:11.677Z,100961.00
2018-12-06T11:56:40.517Z,100957.00
2018-12-06T11:59:09.256Z,100957.00
2018-12-06T12:01:38.096Z,100951.00
2018-12-06T12:04:06.901Z,100946.00
2018-12-06T12:06:35.707Z,100943.00
2018-12-06T12:09:07.680Z,100936.00
2018-12-06T12:11:36.561Z,100940.00
2018-12-06T12:14:05.454Z,100948.00
2018-12-06T12:16:34.336Z,100944.00
2018-12-06T12:19:03.464Z,100942.00
2018-12-06T12:21:34.028Z,100954.00
2018-12-06T12:24:02.878Z,100958.00
2018-12-06T12:26:31.751Z,100957.00
2018-12-06T12:29:00.841Z,100964.00
2018-12-06T12:31:29.691Z,100965.00
2018-12-06T12:33:58.549Z,100947.00
2018-12-06T12:36:27.401Z,100937.00
2018-12-06T12:38:56.288Z,100947.00
2018-12-06T12:41:25.884Z,100941.00
2018-12-06T12:43:54.692Z,100949.00
2018-12-06T12:46:25.481Z,100949.00
2018-12-06T12:48:54.877Z,100947.00
2018-12-06T12:51:28.116Z,100948.00
2018-12-06T12:53:56.871Z,100950.00
2018-12-06T12:56:25.821Z,100941.00
2018-12-06T12:58:55.020Z,100952.00
2018-12-06T13:01:23.915Z,100958.00
2018-12-06T13:03:52.665Z,100956.00
2018-12-06T13:06:21.449Z,100951.00
2018-12-06T13:08:53.029Z,100956.00
2018-12-06T13:11:21.721Z,100954.00
2018-12-06T13:13:50.505Z,100947.00
2018-12-06T13:16:19.452Z,100942.00
2018-12-06T13:18:48.235Z,100938.00
2018-12-06T13:21:17.035Z,100924.00
2018-12-06T13:23:45.861Z,100931.00
2018-12-06T13:26:14.748Z,100921.00
2018-12-06T13:28:44.381Z,100919.00
2018-12-06T13:31:13.833Z,100919.00
2018-12-06T13:33:43.573Z,100914.00
2018-12-06T13:36:12.461Z,100904.00
2018-12-06T13:38:44.535Z,100893.00
2018-12-06T13:41:13.296Z,100898.00
2018-12-06T13:43:42.068Z,100900.00
2018-12-06T13:46:10.888Z,100894.00
2018-12-06T13:48:39.874Z,100898.00
2018-12-06T13:51:08.738Z,100891.00
2018-12-06T13:53:38.303Z,100883.00
2018-12-06T13:56:07.534Z,100879.00
2018-12-06T13:58:36.354Z,100885.00
2018-12-06T14:01:05.511Z,100884.00
2018-12-06T14:03:34.650Z,100875.00
2018-12-06T14:06:03.438Z,100868.00
2018-12-06T14:08:35.879Z,100869.00
2018-12-06T14:11:05.489Z,100855.00
2018-12-06T14:13:34.749Z,100854.00
2018-12-06T14:16:10.202Z,100849.00
2018-12-06T14:18:36.526Z,100857.00
2018-12-06T14:21:05.344Z,100849.00
2018-12-06T14:23:34.181Z,100834.00
2018-12-06T14:26:03.840Z,100828.00
2018-12-06T14:28:36.075Z,100846.00
2018-12-06T14:31:04.881Z,100854.00
2018-12-06T14:33:33.625Z,100867.00
2018-12-06T14:36:02.438Z,100869.00
2018-12-06T14:38:31.666Z,100866.00
2018-12-06T14:41:01.061Z,100865.00
2018-12-06T14:43:30.586Z,100873.00
2018-12-06T14:46:01.162Z,100873.00
2018-12-06T14:48:31.274Z,100895.00
2018-12-06T14:51:00.476Z,100883.00
2018-12-06T14:53:30.080Z,100880.00
2018-12-06T14:55:58.879Z,100889.00
2018-12-06T14:58:27.804Z,100884.00
2018-12-06T15:00:56.596Z,100887.00
2018-12-06T15:03:25.715Z,100886.00
2018-12-06T15:05:55.330Z,100898.00
2018-12-06T15:08:24.181Z,100889.00
2018-12-06T15:10:56.230Z,100887.00
2018-12-06T15:13:30.288Z,100879.00
2018-12-06T15:15:59.093Z,100884.00
2018-12-06T15:18:27.858Z,100890.00
2018-12-06T15:20:56.606Z,100890.00
2018-12-06T15:23:25.362Z,100895.00
2018-12-06T15:25:54.076Z,100892.00
2018-12-06T15:28:22.837Z,100895.00
2018-12-06T15:30:51.631Z,100890.00
2018-12-06T15:33:21.190Z,100907.00
2018-12-06T15:35:51.645Z,100923.00
2018-12-06T15:38:20.409Z,100930.00
2018-12-06T15:40:49.168Z,100935.00
2018-12-06T15:43:17.937Z,100934.00
2018-12-06T15:45:46.886Z,100923.00
2018-12-06T15:48:15.748Z,100924.00
2018-12-06T15:50:44.762Z,100919.00
2018-12-06T15:53:13.612Z,100912.00
2018-12-06T15:55:42.533Z,100913.00
2018-12-06T15:58:15.750Z,100907.00
2018-12-06T16:00:44.500Z,100904.00
2018-12-06T16:03:13.348Z,100902.00
2018-12-06T16:05:43.574Z,100913.00
2018-12-06T16:08:12.569Z,100911.00
2018-12-06T16:10:41.326Z,100919.00
2018-12-06T16:13:10.198Z,100928.00
2018-12-06T16:15:39.081Z,100921.00
2018-12-06T16:18:08.044Z,100914.00
2018-12-06T16:20:36.957Z,100913.00
2018-12-06T16:23:05.866Z,100907.00
2018-12-06T16:25:34.848Z,100917.00
2018-12-06T16:28:04.292Z,100909.00
2018-12-06T16:30:36.304Z,100887.00
2018-12-06T16:33:05.173Z,100873.00
2018-12-06T16:35:34.051Z,100865.00
2018-12-06T16:38:02.890Z,100880.00
2018-12-06T16:40:31.741Z,100875.00
2018-12-06T16:43:00.569Z,100878.00
2018-12-06T16:45:29.399Z,100867.00
2018-12-06T16:47:58.231Z,100870.00
2018-12-06T16:50:27.036Z,100877.00
2018-12-06T16:52:55.823Z,100877.00
2018-12-06T16:55:24.638Z,100871.00
2018-12-06T16:57:54.050Z,100878.00
2018-12-06T17:00:23.273Z,100872.00
2018-12-06T17:02:52.827Z,100864.00
2018-12-06T17:05:21.895Z,100869.00
2018-12-06T17:07:52.912Z,100866.00
2018-12-06T17:10:21.766Z,100875.00
2018-12-06T17:12:50.508Z,100850.00
2018-12-06T17:15:19.344Z,100850.00
2018-12-06T17:17:48.124Z,100846.00
2018-12-06T17:20:16.944Z,100856.00
2018-12-06T17:22:45.686Z,100871.00
2018-12-06T17:25:14.538Z,100874.00
2018-12-06T17:27:43.385Z,100856.00
2018-12-06T17:30:13.825Z,100858.00
2018-12-06T17:32:42.828Z,100866.00
2018-12-06T17:35:11.660Z,100853.00
2018-12-06T17:37:40.483Z,100833.00
2018-12-06T17:40:12.628Z,100845.00
2018-12-06T17:42:41.497Z,100859.00
2018-12-06T17:45:10.320Z,100868.00
2018-12-06T17:47:39.583Z,100867.00
2018-12-06T17:50:08.301Z,100875.00
2018-12-06T17:52:37.116Z,100881.00
2018-12-06T17:55:06.197Z,100880.00
2018-12-06T17:57:34.953Z,100876.00
2018-12-06T18:00:04.974Z,100871.00
2018-12-06T18:02:33.872Z,100873.00
2018-12-06T18:05:02.636Z,100878.00
2018-12-06T18:07:31.438Z,100880.00
2018-12-06T18:10:00.372Z,100868.00
2018-12-06T18:12:29.372Z,100856.00
2018-12-06T18:14:59.015Z,100856.00
2018-12-06T18:17:28.719Z,100860.00
2018-12-06T18:20:00.871Z,100868.00
2018-12-06T18:22:31.011Z,100866.00
2018-12-06T18:24:59.906Z,100857.00
2018-12-06T18:27:28.759Z,100854.00
2018-12-06T18:29:57.612Z,100850.00
2018-12-06T18:32:26.432Z,100855.00
2018-12-06T18:34:55.367Z,100849.00
2018-12-06T18:37:25.822Z,100858.00
2018-12-06T18:39:54.579Z,100837.00
2018-12-06T18:42:23.398Z,100839.00
2018-12-06T18:44:53.149Z,100833.00
2018-12-06T18:47:23.064Z,100857.00
2018-12-06T18:49:51.877Z,100846.00
2018-12-06T18:52:20.669Z,100850.00
2018-12-06T18:54:49.478Z,100849.00
2018-12-06T18:57:18.809Z,100857.00
2018-12-06T18:59:47.717Z,100847.00
2018-12-06T19:02:16.554Z,100848.00
2018-12-06T19:04:45.891Z,100846.00
2018-12-06T19:07:14.868Z,100834.00
2018-12-06T19:09:43.742Z,100833.00
2018-12-06T19:12:13.083Z,100830.00
2018-12-06T19:14:41.979Z,100823.00
2018-12-06T19:17:10.837Z,100818.00
2018-12-06T19:19:39.759Z,100816.00
2018-12-06T19:22:09.326Z,100815.00
2018-12-06T19:24:38.203Z,100811.00
2018-12-06T19:27:07.396Z,100805.00
2018-12-06T19:29:36.214Z,100801.00
2018-12-06T19:32:05.053Z,100798.00
2018-12-06T19:34:34.180Z,100802.00
2018-12-06T19:37:03.080Z,100805.00
2018-12-06T19:39:31.921Z,100804.00
2018-12-06T19:42:01.074Z,100811.00
2018-12-06T19:44:29.986Z,100804.00
2018-12-06T19:47:03.337Z,100811.00
2018-12-06T19:49:32.127Z,100814.00
2018-12-06T19:52:01.350Z,100808.00
2018-12-06T19:54:30.263Z,100809.00
2018-12-06T19:57:00.653Z,100804.00
2018-12-06T19:59:29.542Z,100806.00
2018-12-06T20:01:58.351Z,100807.00
2018-12-06T20:04:27.821Z,100798.00
2018-12-06T20:06:56.598Z,100789.00
2018-12-06T20:09:25.794Z,100791.00
2018-12-06T20:11:58.429Z,100773.00
2018-12-06T20:14:27.258Z,100774.00
2018-12-06T20:16:56.080Z,100763.00
2018-12-06T20:19:24.984Z,100770.00
2018-12-06T20:21:54.487Z,100765.00
2018-12-06T20:24:23.356Z,100767.00
2018-12-06T20:26:52.219Z,100764.00
2018-12-06T20:29:21.029Z,100760.00
2018-12-06T20:31:49.922Z,100761.00
2018-12-06T20:34:18.821Z,100771.00
2018-12-06T20:36:48.489Z,100771.00
2018-12-06T20:39:17.534Z,100762.00
2018-12-06T20:41:47.456Z,100758.00
2018-12-06T20:44:16.253Z,100771.00
2018-12-06T20:46:45.130Z,100779.00
2018-12-06T20:49:13.988Z,100784.00
2018-12-06T20:51:43.122Z,100772.00
2018-12-06T20:54:11.957Z,100759.00
2018-12-06T20:56:40.772Z,100771.00
2018-12-06T20:59:09.686Z,100773.00
2018-12-06T21:01:38.517Z,100765.00
2018-12-06T21:04:07.317Z,100763.00
2018-12-06T21:06:36.118Z,100769.00
2018-12-06T21:09:06.849Z,100760.00
2018-12-06T21:11:35.783Z,100761.00
2018-12-06T21:14:05.655Z,100778.00
2018-12-06T21:16:34.548Z,100757.00
2018-12-06T21:19:04.386Z,100756.00
2018-12-06T21:21:33.275Z,100761.00
2018-12-06T21:24:02.132Z,100753.00
2018-12-06T21:26:31.029Z,100744.00
2018-12-06T21:28:59.848Z,100745.00
2018-12-06T21:31:28.823Z,100740.00
2018-12-06T21:33:57.648Z,100742.00
2018-12-06T21:36:26.499Z,100749.00
2018-12-06T21:38:55.381Z,100741.00
2018-12-06T21:41:24.400Z,100737.00
2018-12-06T21:43:53.364Z,100740.00
2018-12-06T21:46:22.259Z,100738.00
2018-12-06T21:48:51.134Z,100740.00
2018-12-06T21:51:20.001Z,100734.00
2018-12-06T21:53:49.279Z,100726.00
2018-12-06T21:56:18.169Z,100736.00
2018-12-06T21:58:47.661Z,100739.00
2018-12-06T22:01:16.485Z,100737.00
2018-12-06T22:03:45.236Z,100722.00
2018-12-06T22:06:14.086Z,100718.00
2018-12-06T22:08:42.953Z,100581.00
2018-12-06T22:11:11.797Z,100710.00
2018-12-06T22:13:40.604Z,100714.00
2018-12-06T22:16:09.385Z,100713.00
2018-12-06T22:18:38.476Z,100722.00
2018-12-06T22:21:07.303Z,100713.00
2018-12-06T22:23:36.083Z,100706.00
2018-12-06T22:26:04.903Z,100703.00
2018-12-06T22:28:34.222Z,100708.00
2018-12-06T22:31:03.340Z,100707.00
2018-12-06T22:33:32.255Z,100704.00
2018-12-06T22:36:01.150Z,100706.00
2018-12-06T22:38:34.095Z,100705.00
2018-12-06T22:41:00.766Z,100708.00
2018-12-06T22:43:29.553Z,100696.00
2018-12-06T22:45:59.941Z,100685.00
2018-12-06T22:48:28.840Z,100682.00
2018-12-06T22:50:57.813Z,100675.00
2018-12-06T22:53:26.909Z,100674.00
2018-12-06T22:55:56.393Z,100674.00
2018-12-06T22:58:25.403Z,100673.00
2018-12-06T23:00:56.911Z,100675.00
2018-12-06T23:03:26.693Z,100676.00
2018-12-06T23:05:55.578Z,100674.00
2018-12-06T23:08:24.404Z,100660.00
2018-12-06T23:10:53.490Z,100658.00
2018-12-06T23:13:22.257Z,100658.00
2018-12-06T23:15:51.612Z,100657.00
2018-12-06T23:18:20.462Z,100654.00
2018-12-06T23:20:49.506Z,100647.00
2018-12-06T23:23:18.968Z,100637.00
2018-12-06T23:25:47.833Z,100632.00
2018-12-06T23:28:16.653Z,100629.00
2018-12-06T23:30:45.513Z,100624.00
2018-12-06T23:33:14.362Z,100639.00
2018-12-06T23:35:43.548Z,100637.00
2018-12-06T23:38:12.361Z,100645.00
2018-12-06T23:40:41.237Z,100644.00
2018-12-06T23:43:10.095Z,100635.00
2018-12-06T23:45:39.034Z,100636.00
2018-12-06T23:48:07.825Z,100629.00
2018-12-06T23:50:36.763Z,100632.00
2018-12-06T23:53:05.694Z,100629.00
2018-12-06T23:55:34.648Z,100607.00
2018-12-06T23:58:04.335Z,100612.00
